sensor_id;sensor_type;location;lat;lon;timestamp;pressure;altitude;pressure_sealevel;temperature;humidity
1472;BME280;963;42.644;23.336;2022-07-01T00:01:44;94172.28;;;21.78;61.37
1472;BME280;963;42.644;23.336;2022-07-01T00:04:11;94168.44;;;21.79;61.15
1472;BME280;963;42.644;23.336;2022-07-01T00:06:37;94182.38;;;21.99;61.32
1472;BME280;963;42.644;23.336;2022-07-01T00:09:03;94166.84;;;22.20;60.96
1472;BME280;963;42.644;23.336;2022-07-01T00:11:30;94168.56;;;22.13;60.80
1472;BME280;963;42.644;23.336;2022-07-01T00:13:56;94170.56;;;21.84;61.71
1472;BME280;963;42.644;23.336;2022-07-01T00:16:21;94178.50;;;21.62;62.69
1472;BME280;963;42.644;23.336;2022-07-01T00:18:47;94183.09;;;21.87;61.76
1472;BME280;963;42.644;23.336;2022-07-01T00:21:12;94188.78;;;21.89;61.93
1472;BME280;963;42.644;23.336;2022-07-01T00:23:38;94181.28;;;21.84;61.95
1472;BME280;963;42.644;23.336;2022-07-01T00:26:03;94176.78;;;21.81;62.29
1472;BME280;963;42.644;23.336;2022-07-01T00:28:28;94183.84;;;21.88;61.76
1472;BME280;963;42.644;23.336;2022-07-01T00:30:54;94203.91;;;21.96;62.00
1472;BME280;963;42.644;23.336;2022-07-01T00:33:19;94186.03;;;22.05;61.35
1472;BME280;963;42.644;23.336;2022-07-01T00:35:45;94195.09;;;21.82;62.06
1472;BME280;963;42.644;23.336;2022-07-01T00:38:10;94190.94;;;21.94;61.83
1472;BME280;963;42.644;23.336;2022-07-01T00:40:36;94179.50;;;21.94;61.36
1472;BME280;963;42.644;23.336;2022-07-01T00:43:02;94203.81;;;21.99;61.23
1472;BME280;963;42.644;23.336;2022-07-01T00:45:27;94182.25;;;21.77;61.65
1472;BME280;963;42.644;23.336;2022-07-01T00:47:53;94195.00;;;21.86;61.26
1472;BME280;963;42.644;23.336;2022-07-01T00:50:18;94209.13;;;21.87;61.95
1472;BME280;963;42.644;23.336;2022-07-01T00:52:45;94191.28;;;22.09;61.38
1472;BME280;963;42.644;23.336;2022-07-01T00:55:12;94194.19;;;22.14;61.33
1472;BME280;963;42.644;23.336;2022-07-01T00:57:40;94191.59;;;22.24;60.98
1472;BME280;963;42.644;23.336;2022-07-01T01:00:11;94199.44;;;22.31;60.86
1472;BME280;963;42.644;23.336;2022-07-01T01:02:38;94197.19;;;22.17;60.97
1472;BME280;963;42.644;23.336;2022-07-01T01:05:05;94199.22;;;22.12;60.74
1472;BME280;963;42.644;23.336;2022-07-01T01:07:31;94195.59;;;22.06;60.48
1472;BME280;963;42.644;23.336;2022-07-01T01:09:58;94211.19;;;21.95;61.62
1472;BME280;963;42.644;23.336;2022-07-01T01:12:27;94203.41;;;22.13;62.14
1472;BME280;963;42.644;23.336;2022-07-01T01:14:53;94219.06;;;22.15;61.92
1472;BME280;963;42.644;23.336;2022-07-01T01:17:18;94203.28;;;22.17;61.71
1472;BME280;963;42.644;23.336;2022-07-01T01:19:44;94205.44;;;22.09;62.50
1472;BME280;963;42.644;23.336;2022-07-01T01:22:11;94193.22;;;22.08;61.68
1472;BME280;963;42.644;23.336;2022-07-01T01:24:40;94206.50;;;22.12;62.42
1472;BME280;963;42.644;23.336;2022-07-01T01:27:06;94209.09;;;22.15;62.23
1472;BME280;963;42.644;23.336;2022-07-01T01:29:33;94190.22;;;22.19;62.23
1472;BME280;963;42.644;23.336;2022-07-01T01:32:00;94191.50;;;22.14;62.82
1472;BME280;963;42.644;23.336;2022-07-01T01:34:26;94192.38;;;22.11;62.82
1472;BME280;963;42.644;23.336;2022-07-01T01:36:52;94183.03;;;22.03;62.28
1472;BME280;963;42.644;23.336;2022-07-01T01:39:18;94185.94;;;22.09;62.33
1472;BME280;963;42.644;23.336;2022-07-01T01:41:44;94216.25;;;22.19;61.88
1472;BME280;963;42.644;23.336;2022-07-01T01:44:10;94198.47;;;22.25;61.61
1472;BME280;963;42.644;23.336;2022-07-01T01:46:36;94202.13;;;22.31;61.99
1472;BME280;963;42.644;23.336;2022-07-01T01:49:02;94217.78;;;22.32;61.91
1472;BME280;963;42.644;23.336;2022-07-01T01:51:29;94205.13;;;22.33;61.87
1472;BME280;963;42.644;23.336;2022-07-01T01:53:55;94211.13;;;22.37;62.20
1472;BME280;963;42.644;23.336;2022-07-01T01:56:21;94204.91;;;22.40;61.82
1472;BME280;963;42.644;23.336;2022-07-01T01:58:46;94202.09;;;22.43;62.02
1472;BME280;963;42.644;23.336;2022-07-01T02:01:12;94211.84;;;22.50;61.41
1472;BME280;963;42.644;23.336;2022-07-01T02:03:39;94219.03;;;22.53;61.58
1472;BME280;963;42.644;23.336;2022-07-01T02:06:06;94221.72;;;22.53;61.61
1472;BME280;963;42.644;23.336;2022-07-01T02:08:32;94220.00;;;22.46;61.44
1472;BME280;963;42.644;23.336;2022-07-01T02:10:58;94215.19;;;22.41;62.06
1472;BME280;963;42.644;23.336;2022-07-01T02:13:24;94215.84;;;22.33;62.44
1472;BME280;963;42.644;23.336;2022-07-01T02:15:50;94183.47;;;22.14;62.61
1472;BME280;963;42.644;23.336;2022-07-01T02:18:16;94211.25;;;22.33;62.08
1472;BME280;963;42.644;23.336;2022-07-01T02:20:42;94244.03;;;22.37;61.96
1472;BME280;963;42.644;23.336;2022-07-01T02:23:08;94218.00;;;22.38;62.07
1472;BME280;963;42.644;23.336;2022-07-01T02:25:34;94219.50;;;22.39;62.60
1472;BME280;963;42.644;23.336;2022-07-01T02:27:59;94231.38;;;22.38;62.66
1472;BME280;963;42.644;23.336;2022-07-01T02:30:26;94234.06;;;22.38;62.53
1472;BME280;963;42.644;23.336;2022-07-01T02:32:51;94223.88;;;22.33;62.80
1472;BME280;963;42.644;23.336;2022-07-01T02:35:17;94238.78;;;22.34;62.89
1472;BME280;963;42.644;23.336;2022-07-01T02:37:42;94251.44;;;22.33;63.10
1472;BME280;963;42.644;23.336;2022-07-01T02:40:08;94238.97;;;22.27;63.14
1472;BME280;963;42.644;23.336;2022-07-01T02:42:34;94277.91;;;22.19;63.57
1472;BME280;963;42.644;23.336;2022-07-01T02:45:02;94247.44;;;22.25;63.24
1472;BME280;963;42.644;23.336;2022-07-01T02:47:35;94261.59;;;22.26;63.69
1472;BME280;963;42.644;23.336;2022-07-01T02:50:02;94244.56;;;22.20;63.63
1472;BME280;963;42.644;23.336;2022-07-01T02:52:28;94254.53;;;22.19;63.62
1472;BME280;963;42.644;23.336;2022-07-01T02:54:54;94244.03;;;22.12;63.42
1472;BME280;963;42.644;23.336;2022-07-01T02:57:19;94259.25;;;22.15;63.47
1472;BME280;963;42.644;23.336;2022-07-01T02:59:45;94265.69;;;22.18;63.72
1472;BME280;963;42.644;23.336;2022-07-01T03:02:10;94251.53;;;22.17;63.97
1472;BME280;963;42.644;23.336;2022-07-01T03:04:36;94253.25;;;22.11;63.92
1472;BME280;963;42.644;23.336;2022-07-01T03:07:01;94264.81;;;22.08;63.71
1472;BME280;963;42.644;23.336;2022-07-01T03:09:27;94257.28;;;22.03;64.21
1472;BME280;963;42.644;23.336;2022-07-01T03:11:52;94265.31;;;22.03;63.69
1472;BME280;963;42.644;23.336;2022-07-01T03:14:18;94271.97;;;21.98;64.14
1472;BME280;963;42.644;23.336;2022-07-01T03:16:43;94271.31;;;21.94;64.67
1472;BME280;963;42.644;23.336;2022-07-01T03:19:08;94274.63;;;21.98;64.14
1472;BME280;963;42.644;23.336;2022-07-01T03:21:34;94285.50;;;22.07;63.90
1472;BME280;963;42.644;23.336;2022-07-01T03:24:00;94272.41;;;22.09;63.84
1472;BME280;963;42.644;23.336;2022-07-01T03:26:25;94268.88;;;22.12;64.07
1472;BME280;963;42.644;23.336;2022-07-01T03:28:50;94280.91;;;22.21;64.10
1472;BME280;963;42.644;23.336;2022-07-01T03:31:16;94277.34;;;22.24;63.89
1472;BME280;963;42.644;23.336;2022-07-01T03:33:41;94281.53;;;22.25;63.40
1472;BME280;963;42.644;23.336;2022-07-01T03:36:07;94284.22;;;22.25;63.24
1472;BME280;963;42.644;23.336;2022-07-01T03:38:32;94277.34;;;22.24;63.27
1472;BME280;963;42.644;23.336;2022-07-01T03:40:58;94270.72;;;22.28;62.61
1472;BME280;963;42.644;23.336;2022-07-01T03:43:23;94277.81;;;22.35;63.33
1472;BME280;963;42.644;23.336;2022-07-01T03:45:49;94274.59;;;22.40;63.07
1472;BME280;963;42.644;23.336;2022-07-01T03:48:14;94286.72;;;22.44;63.58
1472;BME280;963;42.644;23.336;2022-07-01T03:50:41;94269.88;;;22.44;62.81
1472;BME280;963;42.644;23.336;2022-07-01T03:53:06;94274.38;;;22.47;62.29
1472;BME280;963;42.644;23.336;2022-07-01T03:55:50;94274.16;;;22.54;62.36
1472;BME280;963;42.644;23.336;2022-07-01T03:58:16;94270.94;;;22.59;62.47
1472;BME280;963;42.644;23.336;2022-07-01T04:00:41;94276.06;;;22.66;61.95
1472;BME280;963;42.644;23.336;2022-07-01T04:03:07;94274.38;;;22.72;61.58
1472;BME280;963;42.644;23.336;2022-07-01T04:05:34;94276.81;;;22.80;61.94
1472;BME280;963;42.644;23.336;2022-07-01T04:08:00;94280.16;;;22.84;62.07
1472;BME280;963;42.644;23.336;2022-07-01T04:10:26;94278.44;;;22.90;61.72
1472;BME280;963;42.644;23.336;2022-07-01T04:12:51;94290.13;;;22.96;62.24
1472;BME280;963;42.644;23.336;2022-07-01T04:15:17;94278.22;;;22.97;62.10
1472;BME280;963;42.644;23.336;2022-07-01T04:17:43;94279.81;;;23.07;61.35
1472;BME280;963;42.644;23.336;2022-07-01T04:20:08;94291.63;;;23.10;61.53
1472;BME280;963;42.644;23.336;2022-07-01T04:22:34;94293.94;;;23.20;60.84
1472;BME280;963;42.644;23.336;2022-07-01T04:25:03;94302.06;;;23.29;60.90
1472;BME280;963;42.644;23.336;2022-07-01T04:27:32;94294.66;;;23.33;60.94
1472;BME280;963;42.644;23.336;2022-07-01T04:29:58;94301.84;;;23.36;60.49
1472;BME280;963;42.644;23.336;2022-07-01T04:32:24;94291.41;;;23.38;60.04
1472;BME280;963;42.644;23.336;2022-07-01T04:34:49;94289.78;;;23.41;60.40
1472;BME280;963;42.644;23.336;2022-07-01T04:37:15;94303.75;;;23.49;60.29
1472;BME280;963;42.644;23.336;2022-07-01T04:39:41;94315.88;;;23.53;59.36
1472;BME280;963;42.644;23.336;2022-07-01T04:42:06;94293.00;;;23.49;60.04
1472;BME280;963;42.644;23.336;2022-07-01T04:44:37;94297.41;;;23.55;60.50
1472;BME280;963;42.644;23.336;2022-07-01T04:47:03;94299.09;;;23.62;60.45
1472;BME280;963;42.644;23.336;2022-07-01T04:49:29;94300.66;;;23.37;61.38
1472;BME280;963;42.644;23.336;2022-07-01T04:51:55;94305.13;;;23.53;61.13
1472;BME280;963;42.644;23.336;2022-07-01T04:54:21;94309.53;;;23.60;61.22
1472;BME280;963;42.644;23.336;2022-07-01T04:56:47;94305.97;;;23.63;60.76
1472;BME280;963;42.644;23.336;2022-07-01T04:59:13;94322.69;;;23.67;60.44
1472;BME280;963;42.644;23.336;2022-07-01T05:01:43;94291.53;;;23.69;60.76
1472;BME280;963;42.644;23.336;2022-07-01T05:04:09;94316.19;;;23.77;60.12
1472;BME280;963;42.644;23.336;2022-07-01T05:06:34;94291.50;;;23.82;59.74
1472;BME280;963;42.644;23.336;2022-07-01T05:09:00;94286.91;;;23.92;59.66
1472;BME280;963;42.644;23.336;2022-07-01T05:11:26;94291.09;;;23.93;60.18
1472;BME280;963;42.644;23.336;2022-07-01T05:13:51;94297.00;;;24.10;59.29
1472;BME280;963;42.644;23.336;2022-07-01T05:16:17;94302.16;;;24.17;59.08
1472;BME280;963;42.644;23.336;2022-07-01T05:18:43;94305.00;;;24.22;58.62
1472;BME280;963;42.644;23.336;2022-07-01T05:21:27;94295.97;;;24.29;58.77
1472;BME280;963;42.644;23.336;2022-07-01T05:24:11;94308.22;;;24.30;58.54
1472;BME280;963;42.644;23.336;2022-07-01T05:26:37;94291.44;;;24.26;59.29
1472;BME280;963;42.644;23.336;2022-07-01T05:29:02;94302.84;;;24.30;59.04
1472;BME280;963;42.644;23.336;2022-07-01T05:31:28;94313.94;;;24.41;58.49
1472;BME280;963;42.644;23.336;2022-07-01T05:33:54;94303.94;;;24.42;58.36
1472;BME280;963;42.644;23.336;2022-07-01T05:36:19;94293.03;;;24.45;58.10
1472;BME280;963;42.644;23.336;2022-07-01T05:38:45;94296.69;;;24.60;58.33
1472;BME280;963;42.644;23.336;2022-07-01T05:41:10;94298.50;;;24.63;57.70
1472;BME280;963;42.644;23.336;2022-07-01T05:43:36;94303.88;;;24.63;58.31
1472;BME280;963;42.644;23.336;2022-07-01T05:46:01;94292.25;;;24.67;58.58
1472;BME280;963;42.644;23.336;2022-07-01T05:48:27;94303.09;;;24.54;59.24
1472;BME280;963;42.644;23.336;2022-07-01T05:50:53;94306.41;;;24.58;58.70
1472;BME280;963;42.644;23.336;2022-07-01T05:53:19;94299.53;;;24.57;58.54
1472;BME280;963;42.644;23.336;2022-07-01T05:55:44;94300.34;;;24.76;58.31
1472;BME280;963;42.644;23.336;2022-07-01T05:58:10;94302.72;;;24.34;59.27
1472;BME280;963;42.644;23.336;2022-07-01T06:00:36;94295.84;;;24.73;58.11
1472;BME280;963;42.644;23.336;2022-07-01T06:03:03;94298.56;;;24.82;58.28
1472;BME280;963;42.644;23.336;2022-07-01T06:05:28;94297.72;;;24.94;58.08
1472;BME280;963;42.644;23.336;2022-07-01T06:07:55;94294.75;;;25.01;57.08
1472;BME280;963;42.644;23.336;2022-07-01T06:10:20;94303.91;;;25.13;56.94
1472;BME280;963;42.644;23.336;2022-07-01T06:12:46;94295.66;;;25.07;56.80
1472;BME280;963;42.644;23.336;2022-07-01T06:15:12;94310.47;;;25.21;56.76
1472;BME280;963;42.644;23.336;2022-07-01T06:17:40;94292.22;;;25.25;56.56
1472;BME280;963;42.644;23.336;2022-07-01T06:20:07;94309.59;;;25.24;56.15
1472;BME280;963;42.644;23.336;2022-07-01T06:22:33;94314.25;;;25.33;55.70
1472;BME280;963;42.644;23.336;2022-07-01T06:24:59;94301.09;;;25.44;55.38
1472;BME280;963;42.644;23.336;2022-07-01T06:27:24;94312.31;;;25.42;56.15
1472;BME280;963;42.644;23.336;2022-07-01T06:29:51;94306.78;;;25.46;55.77
1472;BME280;963;42.644;23.336;2022-07-01T06:32:16;94325.03;;;25.51;55.82
1472;BME280;963;42.644;23.336;2022-07-01T06:34:42;94309.47;;;25.55;55.40
1472;BME280;963;42.644;23.336;2022-07-01T06:37:08;94312.63;;;25.53;55.44
1472;BME280;963;42.644;23.336;2022-07-01T06:39:33;94313.69;;;25.65;55.00
1472;BME280;963;42.644;23.336;2022-07-01T06:41:59;94319.06;;;25.47;55.90
1472;BME280;963;42.644;23.336;2022-07-01T06:44:24;94309.63;;;25.33;56.71
1472;BME280;963;42.644;23.336;2022-07-01T06:46:50;94306.47;;;25.53;56.33
1472;BME280;963;42.644;23.336;2022-07-01T06:49:15;94321.16;;;25.34;57.57
1472;BME280;963;42.644;23.336;2022-07-01T06:51:41;94316.06;;;25.63;56.94
1472;BME280;963;42.644;23.336;2022-07-01T06:54:06;94300.19;;;25.56;57.09
1472;BME280;963;42.644;23.336;2022-07-01T06:56:32;94300.09;;;25.69;57.23
1472;BME280;963;42.644;23.336;2022-07-01T06:58:57;94299.91;;;25.81;56.75
1472;BME280;963;42.644;23.336;2022-07-01T07:01:24;94304.09;;;25.82;56.31
1472;BME280;963;42.644;23.336;2022-07-01T07:03:50;94309.19;;;25.90;56.74
1472;BME280;963;42.644;23.336;2022-07-01T07:06:15;94307.69;;;25.98;56.75
1472;BME280;963;42.644;23.336;2022-07-01T07:08:41;94300.19;;;25.93;56.27
1472;BME280;963;42.644;23.336;2022-07-01T07:11:06;94314.00;;;25.85;56.84
1472;BME280;963;42.644;23.336;2022-07-01T07:13:37;94303.22;;;25.85;57.12
1472;BME280;963;42.644;23.336;2022-07-01T07:16:02;94304.97;;;25.98;56.65
1472;BME280;963;42.644;23.336;2022-07-01T07:18:28;94317.84;;;26.12;56.27
1472;BME280;963;42.644;23.336;2022-07-01T07:20:53;94311.56;;;26.15;56.01
1472;BME280;963;42.644;23.336;2022-07-01T07:23:19;94313.34;;;26.18;56.51
1472;BME280;963;42.644;23.336;2022-07-01T07:25:44;94305.53;;;26.20;56.24
1472;BME280;963;42.644;23.336;2022-07-01T07:28:10;94310.31;;;26.25;56.37
1472;BME280;963;42.644;23.336;2022-07-01T07:30:35;94308.41;;;26.16;56.50
1472;BME280;963;42.644;23.336;2022-07-01T07:33:01;94319.91;;;26.35;55.80
1472;BME280;963;42.644;23.336;2022-07-01T07:35:26;94320.53;;;26.39;55.43
1472;BME280;963;42.644;23.336;2022-07-01T07:37:52;94316.63;;;26.40;55.44
1472;BME280;963;42.644;23.336;2022-07-01T07:40:17;94320.44;;;26.58;55.40
1472;BME280;963;42.644;23.336;2022-07-01T07:42:46;94304.75;;;26.47;54.63
1472;BME280;963;42.644;23.336;2022-07-01T07:45:12;94304.09;;;26.61;54.69
1472;BME280;963;42.644;23.336;2022-07-01T07:47:41;94303.75;;;26.68;54.89
1472;BME280;963;42.644;23.336;2022-07-01T07:50:08;94308.59;;;26.64;55.48
1472;BME280;963;42.644;23.336;2022-07-01T07:52:34;94296.38;;;26.78;54.93
1472;BME280;963;42.644;23.336;2022-07-01T07:54:59;94294.38;;;26.88;54.07
1472;BME280;963;42.644;23.336;2022-07-01T07:57:25;94313.84;;;27.01;53.52
1472;BME280;963;42.644;23.336;2022-07-01T07:59:50;94312.47;;;27.05;53.27
1472;BME280;963;42.644;23.336;2022-07-01T08:02:16;94318.56;;;27.15;53.28
1472;BME280;963;42.644;23.336;2022-07-01T08:04:41;94294.38;;;27.21;53.15
1472;BME280;963;42.644;23.336;2022-07-01T08:07:06;94291.97;;;27.23;52.87
1472;BME280;963;42.644;23.336;2022-07-01T08:09:32;94297.28;;;27.08;53.03
1472;BME280;963;42.644;23.336;2022-07-01T08:12:00;94286.56;;;27.23;53.25
1472;BME280;963;42.644;23.336;2022-07-01T08:14:25;94284.16;;;27.25;53.18
1472;BME280;963;42.644;23.336;2022-07-01T08:16:51;94290.69;;;27.33;52.85
1472;BME280;963;42.644;23.336;2022-07-01T08:19:17;94289.59;;;27.39;52.27
1472;BME280;963;42.644;23.336;2022-07-01T08:21:42;94300.09;;;27.37;53.02
1472;BME280;963;42.644;23.336;2022-07-01T08:24:07;94282.16;;;27.49;52.58
1472;BME280;963;42.644;23.336;2022-07-01T08:26:33;94277.28;;;27.38;53.08
1472;BME280;963;42.644;23.336;2022-07-01T08:28:58;94274.16;;;27.55;52.55
1472;BME280;963;42.644;23.336;2022-07-01T08:31:24;94272.72;;;27.68;52.06
1472;BME280;963;42.644;23.336;2022-07-01T08:33:49;94280.75;;;27.78;52.19
1472;BME280;963;42.644;23.336;2022-07-01T08:36:14;94276.94;;;27.84;51.61
1472;BME280;963;42.644;23.336;2022-07-01T08:38:40;94286.00;;;27.96;51.38
1472;BME280;963;42.644;23.336;2022-07-01T08:41:06;94279.34;;;27.82;50.96
1472;BME280;963;42.644;23.336;2022-07-01T08:43:33;94283.38;;;27.87;52.44
1472;BME280;963;42.644;23.336;2022-07-01T08:46:00;94280.03;;;28.07;52.18
1472;BME280;963;42.644;23.336;2022-07-01T08:48:30;94280.78;;;28.07;51.41
1472;BME280;963;42.644;23.336;2022-07-01T08:50:56;94282.81;;;28.12;51.36
1472;BME280;963;42.644;23.336;2022-07-01T08:53:22;94287.09;;;28.19;51.27
1472;BME280;963;42.644;23.336;2022-07-01T08:55:47;94289.03;;;28.27;50.53
1472;BME280;963;42.644;23.336;2022-07-01T08:58:32;94281.91;;;28.45;51.09
1472;BME280;963;42.644;23.336;2022-07-01T09:01:17;94275.34;;;28.51;49.35
1472;BME280;963;42.644;23.336;2022-07-01T09:03:46;94290.47;;;28.58;48.67
1472;BME280;963;42.644;23.336;2022-07-01T09:06:32;94275.25;;;28.60;49.36
1472;BME280;963;42.644;23.336;2022-07-01T09:09:11;94278.88;;;28.57;49.80
1472;BME280;963;42.644;23.336;2022-07-01T09:11:44;94290.19;;;28.71;48.75
1472;BME280;963;42.644;23.336;2022-07-01T09:14:12;94273.25;;;28.76;48.35
1472;BME280;963;42.644;23.336;2022-07-01T09:16:44;94276.31;;;28.83;48.08
1472;BME280;963;42.644;23.336;2022-07-01T09:19:11;94280.16;;;28.77;47.16
1472;BME280;963;42.644;23.336;2022-07-01T09:21:38;94279.03;;;28.83;46.86
1472;BME280;963;42.644;23.336;2022-07-01T09:24:21;94269.97;;;28.86;45.65
1472;BME280;963;42.644;23.336;2022-07-01T09:29:26;94274.22;;;29.08;46.32
1472;BME280;963;42.644;23.336;2022-07-01T09:31:51;94277.59;;;29.23;44.40
1472;BME280;963;42.644;23.336;2022-07-01T09:34:16;94287.97;;;29.24;43.80
1472;BME280;963;42.644;23.336;2022-07-01T09:36:54;94274.63;;;29.21;43.38
1472;BME280;963;42.644;23.336;2022-07-01T09:39:20;94269.84;;;28.95;43.52
1472;BME280;963;42.644;23.336;2022-07-01T09:41:46;94276.13;;;29.22;43.48
1472;BME280;963;42.644;23.336;2022-07-01T09:44:11;94261.06;;;29.21;41.79
1472;BME280;963;42.644;23.336;2022-07-01T09:46:37;94270.22;;;29.23;40.87
1472;BME280;963;42.644;23.336;2022-07-01T09:49:03;94266.97;;;29.40;41.43
1472;BME280;963;42.644;23.336;2022-07-01T09:51:29;94248.34;;;29.47;41.16
1472;BME280;963;42.644;23.336;2022-07-01T09:53:55;94241.56;;;29.58;40.97
1472;BME280;963;42.644;23.336;2022-07-01T09:56:23;94241.53;;;29.78;41.42
1472;BME280;963;42.644;23.336;2022-07-01T09:58:48;94242.00;;;29.76;40.81
1472;BME280;963;42.644;23.336;2022-07-01T10:01:14;94253.03;;;29.73;39.71
1472;BME280;963;42.644;23.336;2022-07-01T10:03:40;94233.00;;;29.65;40.34
1472;BME280;963;42.644;23.336;2022-07-01T10:11:51;94243.00;;;30.05;39.09
1472;BME280;963;42.644;23.336;2022-07-01T10:14:19;94238.00;;;30.24;38.26
1472;BME280;963;42.644;23.336;2022-07-01T10:16:46;94236.59;;;30.34;34.99
1472;BME280;963;42.644;23.336;2022-07-01T10:21:45;94234.66;;;30.40;36.23
1472;BME280;963;42.644;23.336;2022-07-01T10:24:14;94225.84;;;30.51;38.09
1472;BME280;963;42.644;23.336;2022-07-01T10:26:41;94213.81;;;30.57;36.92
1472;BME280;963;42.644;23.336;2022-07-01T10:29:33;94220.81;;;30.69;34.47
1472;BME280;963;42.644;23.336;2022-07-01T10:32:26;94221.75;;;30.61;33.43
1472;BME280;963;42.644;23.336;2022-07-01T10:35:03;94232.31;;;30.59;30.35
1472;BME280;963;42.644;23.336;2022-07-01T10:37:29;94215.66;;;30.77;31.00
1472;BME280;963;42.644;23.336;2022-07-01T10:39:59;94208.31;;;30.89;30.64
1472;BME280;963;42.644;23.336;2022-07-01T10:42:33;94210.16;;;31.14;31.36
1472;BME280;963;42.644;23.336;2022-07-01T10:45:10;94189.09;;;30.98;29.79
1472;BME280;963;42.644;23.336;2022-07-01T10:47:38;94208.22;;;31.20;30.71
1472;BME280;963;42.644;23.336;2022-07-01T10:50:04;94201.34;;;31.25;30.51
1472;BME280;963;42.644;23.336;2022-07-01T10:52:30;94195.41;;;31.32;29.78
1472;BME280;963;42.644;23.336;2022-07-01T10:54:57;94195.94;;;31.41;30.04
1472;BME280;963;42.644;23.336;2022-07-01T10:57:28;94202.84;;;31.31;30.81
1472;BME280;963;42.644;23.336;2022-07-01T10:59:56;94198.47;;;31.67;31.50
1472;BME280;963;42.644;23.336;2022-07-01T11:02:40;94214.81;;;31.79;29.29
1472;BME280;963;42.644;23.336;2022-07-01T11:05:11;94210.13;;;31.85;30.00
1472;BME280;963;42.644;23.336;2022-07-01T11:07:42;94197.75;;;31.89;29.28
1472;BME280;963;42.644;23.336;2022-07-01T11:10:11;94199.75;;;32.00;30.71
1472;BME280;963;42.644;23.336;2022-07-01T11:12:37;94192.56;;;32.14;30.91
1472;BME280;963;42.644;23.336;2022-07-01T11:15:03;94201.00;;;32.05;30.17
1472;BME280;963;42.644;23.336;2022-07-01T11:17:35;94194.31;;;32.22;29.42
1472;BME280;963;42.644;23.336;2022-07-01T11:20:01;94199.75;;;32.22;28.62
1472;BME280;963;42.644;23.336;2022-07-01T11:22:32;94194.06;;;32.15;29.15
1472;BME280;963;42.644;23.336;2022-07-01T11:25:08;94194.59;;;32.36;30.61
1472;BME280;963;42.644;23.336;2022-07-01T11:27:35;94186.09;;;32.61;31.62
1472;BME280;963;42.644;23.336;2022-07-01T11:30:04;94195.50;;;32.72;30.77
1472;BME280;963;42.644;23.336;2022-07-01T11:32:41;94185.06;;;32.87;30.60
1472;BME280;963;42.644;23.336;2022-07-01T11:35:09;94183.81;;;32.93;30.51
1472;BME280;963;42.644;23.336;2022-07-01T11:40:55;94176.91;;;32.81;29.29
1472;BME280;963;42.644;23.336;2022-07-01T11:43:26;94188.06;;;32.78;30.22
1472;BME280;963;42.644;23.336;2022-07-01T11:45:52;94180.06;;;32.97;28.50
1472;BME280;963;42.644;23.336;2022-07-01T11:48:29;94174.84;;;32.99;28.91
1472;BME280;963;42.644;23.336;2022-07-01T11:50:55;94159.69;;;33.14;29.29
1472;BME280;963;42.644;23.336;2022-07-01T11:53:20;94169.22;;;33.43;29.67
1472;BME280;963;42.644;23.336;2022-07-01T11:55:47;94168.28;;;33.35;27.69
1472;BME280;963;42.644;23.336;2022-07-01T11:58:13;94166.56;;;33.26;28.21
1472;BME280;963;42.644;23.336;2022-07-01T12:00:38;94168.81;;;33.22;27.78
1472;BME280;963;42.644;23.336;2022-07-01T12:03:04;94164.78;;;33.40;27.28
1472;BME280;963;42.644;23.336;2022-07-01T12:05:31;94158.28;;;33.43;26.44
1472;BME280;963;42.644;23.336;2022-07-01T12:07:57;94170.69;;;32.92;28.47
1472;BME280;963;42.644;23.336;2022-07-01T12:10:25;94151.53;;;33.09;28.26
1472;BME280;963;42.644;23.336;2022-07-01T12:12:51;94148.53;;;33.12;27.11
1472;BME280;963;42.644;23.336;2022-07-01T12:15:16;94158.38;;;33.26;28.88
1472;BME280;963;42.644;23.336;2022-07-01T12:17:42;94151.28;;;33.12;28.58
1472;BME280;963;42.644;23.336;2022-07-01T12:20:07;94155.94;;;33.17;27.80
1472;BME280;963;42.644;23.336;2022-07-01T12:22:33;94140.44;;;33.42;27.18
1472;BME280;963;42.644;23.336;2022-07-01T12:25:10;94149.75;;;33.64;27.96
1472;BME280;963;42.644;23.336;2022-07-01T12:27:37;94155.47;;;33.60;29.15
1472;BME280;963;42.644;23.336;2022-07-01T12:30:05;94133.38;;;33.64;29.79
1472;BME280;963;42.644;23.336;2022-07-01T12:32:35;94144.59;;;33.54;29.12
1472;BME280;963;42.644;23.336;2022-07-01T12:35:03;94137.53;;;33.70;28.92
1472;BME280;963;42.644;23.336;2022-07-01T12:37:31;94136.72;;;33.86;29.00
1472;BME280;963;42.644;23.336;2022-07-01T12:40:23;94136.19;;;33.88;28.52
1472;BME280;963;42.644;23.336;2022-07-01T12:42:49;94120.59;;;33.47;28.63
1472;BME280;963;42.644;23.336;2022-07-01T12:45:20;94133.19;;;33.56;28.12
1472;BME280;963;42.644;23.336;2022-07-01T12:47:51;94128.09;;;33.71;27.52
1472;BME280;963;42.644;23.336;2022-07-01T12:50:19;94121.53;;;33.55;26.63
1472;BME280;963;42.644;23.336;2022-07-01T12:53:05;94122.09;;;33.78;27.07
1472;BME280;963;42.644;23.336;2022-07-01T12:57:58;94117.97;;;34.02;28.77
1472;BME280;963;42.644;23.336;2022-07-01T13:00:25;94125.56;;;34.39;29.11
1472;BME280;963;42.644;23.336;2022-07-01T13:02:53;94117.69;;;34.30;33.01
1472;BME280;963;42.644;23.336;2022-07-01T13:05:19;94124.63;;;34.36;34.24
1472;BME280;963;42.644;23.336;2022-07-01T13:07:45;94120.66;;;34.32;34.37
1472;BME280;963;42.644;23.336;2022-07-01T13:10:11;94115.63;;;34.41;35.41
1472;BME280;963;42.644;23.336;2022-07-01T13:12:36;94113.16;;;34.62;35.22
1472;BME280;963;42.644;23.336;2022-07-01T13:15:03;94121.13;;;34.60;35.24
1472;BME280;963;42.644;23.336;2022-07-01T13:17:28;94116.66;;;34.82;34.85
1472;BME280;963;42.644;23.336;2022-07-01T13:19:53;94126.31;;;34.64;34.03
1472;BME280;963;42.644;23.336;2022-07-01T13:22:19;94119.53;;;34.70;34.18
1472;BME280;963;42.644;23.336;2022-07-01T13:24:45;94124.84;;;34.63;34.16
1472;BME280;963;42.644;23.336;2022-07-01T13:27:10;94116.19;;;34.59;34.13
1472;BME280;963;42.644;23.336;2022-07-01T13:29:37;94121.03;;;34.17;34.24
1472;BME280;963;42.644;23.336;2022-07-01T13:32:04;94121.06;;;34.41;33.84
1472;BME280;963;42.644;23.336;2022-07-01T13:34:29;94119.09;;;34.42;33.18
1472;BME280;963;42.644;23.336;2022-07-01T13:36:55;94118.25;;;34.71;32.80
1472;BME280;963;42.644;23.336;2022-07-01T13:39:21;94126.63;;;34.30;33.26